Clover, Idaho
Current Conditions -  °F | °C
As of 7:53 AM on Monday 22 Dec 2014 (Local Time) from KJER Reporting Station
Overcast Overcast  
Wind Chill: 25°   Ceiling: 200
Heat Index: 36°   Visibility: 10mi
Dew Point: 35°   Wind: 21mph
Humidity: 97%   Direction: 240°WSW
Pressure: 30.02"   Gusts: 29mph
Location:  42.6472°N, 114.901°W
Report Text: KJER 221453Z AUTO 24018G25KT 10SM OVC002 02/02 A3002 RMK AO2 PK WND 24026/1433 SLP180 T00220017 50002
Loading
Personal Weather Stations






























Interactive Weather Map New forecast layout! Learn more

10-Day Weather Forecast

Advertisements
Track Severe Weather on mobile